createdAt,value
2023-01-13T00:04:54.548Z,98042.75
2023-01-13T00:09:57.266Z,97915.16
2023-01-13T00:14:59.737Z,98037.81
2023-01-13T00:20:02.406Z,97957.63
2023-01-13T00:25:14.955Z,98058.25
2023-01-13T00:30:17.749Z,98013.97
2023-01-13T00:35:20.383Z,97922.84
2023-01-13T00:40:22.869Z,97921.41
2023-01-13T00:45:25.402Z,98030.66
2023-01-13T00:50:29.395Z,98025.09
2023-01-13T00:55:33.877Z,98062.56
2023-01-13T01:00:37.141Z,97992.09
2023-01-13T01:05:40.793Z,98048.31
2023-01-13T01:10:43.396Z,97921.81
2023-01-13T01:15:46.178Z,98041.41
2023-01-13T01:20:53.229Z,98031.78
2023-01-13T01:26:00.630Z,97907.69
2023-01-13T01:31:12.009Z,97935.34
2023-01-13T01:36:29.673Z,98023.00
2023-01-13T01:41:35.144Z,97931.81
2023-01-13T01:46:39.248Z,98015.09
2023-01-13T01:51:49.651Z,97999.59
2023-01-13T01:56:53.253Z,97814.91
2023-01-13T02:01:56.199Z,97818.38
2023-01-13T02:06:59.073Z,97878.66
2023-01-13T02:12:20.582Z,97944.59
2023-01-13T02:17:57.456Z,97981.69
2023-01-13T02:23:48.684Z,97986.78
2023-01-13T02:29:42.409Z,97980.94
2023-01-13T02:34:56.658Z,97920.88
2023-01-13T02:40:18.069Z,97973.72
2023-01-13T02:45:27.016Z,97877.66
2023-01-13T02:50:48.347Z,97951.38
2023-01-13T02:55:55.228Z,97933.03
2023-01-13T03:00:58.434Z,97956.34
2023-01-13T03:06:18.070Z,97932.81
2023-01-13T03:11:21.571Z,97965.63
2023-01-13T03:16:42.515Z,97951.84
2023-01-13T03:21:58.447Z,97945.34
2023-01-13T03:27:34.792Z,97862.00
2023-01-13T03:32:53.238Z,97732.25
2023-01-13T03:38:06.804Z,97682.78
2023-01-13T03:43:34.640Z,97926.22
2023-01-13T03:48:41.244Z,97895.56
2023-01-13T03:53:51.730Z,97914.59
2023-01-13T03:58:55.272Z,97833.69
2023-01-13T04:04:10.437Z,97916.84
2023-01-13T04:09:23.438Z,97915.97
2023-01-13T04:14:28.661Z,97695.06
2023-01-13T04:19:32.513Z,97867.03
2023-01-13T04:24:35.407Z,97755.38
2023-01-13T04:29:38.422Z,97944.75
2023-01-13T04:34:41.152Z,97888.31
2023-01-13T04:39:44.096Z,97853.53
2023-01-13T04:44:47.296Z,97844.47
2023-01-13T04:49:49.879Z,97910.97
2023-01-13T04:54:52.802Z,97829.34
2023-01-13T04:59:56.574Z,97872.22
2023-01-13T05:04:59.369Z,97679.88
2023-01-13T05:10:12.636Z,97902.44
2023-01-13T05:15:34.695Z,97732.75
2023-01-13T05:20:47.703Z,97804.53
2023-01-13T05:25:50.658Z,97782.06
2023-01-13T05:30:53.461Z,97678.75
2023-01-13T05:35:56.015Z,97816.88
2023-01-13T05:41:19.032Z,97752.75
2023-01-13T05:46:21.881Z,97853.16
2023-01-13T05:51:27.227Z,97756.41
2023-01-13T05:56:29.643Z,97924.72
2023-01-13T06:01:32.338Z,97883.13
2023-01-13T06:06:34.881Z,97864.13
2023-01-13T06:11:37.458Z,97873.78
2023-01-13T06:16:40.309Z,97846.94
2023-01-13T06:21:46.086Z,97745.91
2023-01-13T06:26:49.984Z,97865.38
2023-01-13T06:32:17.281Z,97824.09
2023-01-13T06:37:22.678Z,97766.69
2023-01-13T06:42:44.944Z,97939.16
2023-01-13T06:47:47.621Z,97847.31
2023-01-13T06:52:50.422Z,97908.03
2023-01-13T06:57:55.469Z,97928.78
2023-01-13T07:03:10.230Z,97923.44
2023-01-13T07:08:13.135Z,97867.78
2023-01-13T07:13:34.560Z,97919.59
2023-01-13T07:18:37.696Z,97821.72
2023-01-13T07:23:42.288Z,97915.78
2023-01-13T07:28:44.928Z,97880.94
2023-01-13T07:33:48.597Z,97851.41
2023-01-13T07:38:52.752Z,97757.69
2023-01-13T07:43:57.171Z,97667.44
2023-01-13T07:49:10.058Z,97921.53
2023-01-13T07:54:12.725Z,97922.03
2023-01-13T07:59:15.315Z,97760.91
2023-01-13T08:04:18.294Z,97818.44
2023-01-13T08:09:21.623Z,97897.47
2023-01-13T08:14:24.361Z,97888.25
2023-01-13T08:19:26.943Z,97784.91
2023-01-13T08:24:29.450Z,97714.59
2023-01-13T08:29:32.021Z,97868.41
2023-01-13T08:34:34.809Z,97800.59
2023-01-13T08:39:37.409Z,97745.09
2023-01-13T08:44:47.521Z,97771.59
2023-01-13T08:49:50.183Z,97655.50
2023-01-13T08:54:53.274Z,97841.88
2023-01-13T08:59:56.664Z,97887.75
2023-01-13T09:05:03.620Z,97706.53
2023-01-13T09:10:09.110Z,97931.47
2023-01-13T09:15:13.608Z,97917.50
2023-01-13T09:20:17.156Z,97738.72
2023-01-13T09:25:20.471Z,97927.47
2023-01-13T09:30:24.352Z,97809.56
2023-01-13T09:35:27.689Z,97873.78
2023-01-13T09:40:31.569Z,97773.72
2023-01-13T09:45:47.430Z,97830.44
2023-01-13T09:50:55.750Z,97891.03
2023-01-13T09:56:01.669Z,97882.94
2023-01-13T10:01:25.666Z,97883.44
2023-01-13T10:06:34.185Z,97641.88
2023-01-13T10:12:01.105Z,97882.22
2023-01-13T10:17:31.324Z,97798.81
2023-01-13T10:23:04.815Z,97848.94
2023-01-13T10:28:14.988Z,97844.25
2023-01-13T10:33:27.663Z,97838.88
2023-01-13T10:38:31.405Z,97835.50
2023-01-13T10:43:34.785Z,97808.31
2023-01-13T10:48:43.136Z,97809.53
2023-01-13T10:53:53.083Z,97804.84
2023-01-13T10:59:16.745Z,97750.56
2023-01-13T11:04:44.302Z,97784.22
2023-01-13T11:09:48.218Z,97690.16
2023-01-13T11:14:52.934Z,97683.41
2023-01-13T11:20:06.229Z,97778.97
2023-01-13T11:25:16.386Z,97608.06
2023-01-13T11:30:38.106Z,97771.88
2023-01-13T11:36:04.483Z,97764.00
2023-01-13T11:41:25.779Z,97758.19
2023-01-13T11:46:29.449Z,97739.63
2023-01-13T11:51:35.596Z,97745.31
2023-01-13T11:56:47.771Z,97730.41
2023-01-13T12:02:00.467Z,97744.41
2023-01-13T12:07:13.810Z,97731.91
2023-01-13T12:12:43.987Z,97725.75
2023-01-13T12:17:59.866Z,97718.72
2023-01-13T12:23:14.148Z,97660.13
2023-01-13T12:28:25.243Z,97674.94
2023-01-13T12:33:44.948Z,97714.16
2023-01-13T12:39:07.420Z,97705.78
2023-01-13T12:44:21.090Z,97709.34
2023-01-13T12:49:25.581Z,97699.88
2023-01-13T12:54:31.579Z,97691.22
2023-01-13T12:59:36.727Z,97621.44
2023-01-13T13:04:54.879Z,97693.41
2023-01-13T13:10:06.845Z,97691.09
2023-01-13T13:15:34.966Z,97656.63
2023-01-13T13:20:58.001Z,97696.06
2023-01-13T13:26:23.054Z,97715.78
2023-01-13T13:31:45.169Z,97723.00
2023-01-13T13:36:58.428Z,97712.75
2023-01-13T13:42:32.657Z,97717.31
2023-01-13T13:47:40.811Z,97623.72
2023-01-13T13:52:55.172Z,97642.53
2023-01-13T13:58:00.134Z,97739.81
2023-01-13T14:03:07.298Z,97699.50
2023-01-13T14:08:15.918Z,97676.16
2023-01-13T14:13:23.590Z,97699.03
2023-01-13T14:18:29.528Z,97635.66
2023-01-13T14:23:40.467Z,97465.22
2023-01-13T14:28:47.846Z,97624.56
2023-01-13T14:34:00.651Z,97676.91
2023-01-13T14:39:04.127Z,97705.31
2023-01-13T14:44:23.465Z,97648.22
2023-01-13T14:49:29.904Z,97716.59
2023-01-13T14:55:18.389Z,97673.19
2023-01-13T15:00:24.592Z,97676.16
2023-01-13T15:05:27.864Z,97703.50
2023-01-13T15:10:32.854Z,97639.34
2023-01-13T15:15:40.851Z,97647.91
2023-01-13T15:20:45.367Z,97698.00
2023-01-13T15:25:49.754Z,97699.72
2023-01-13T15:30:55.219Z,97692.41
2023-01-13T15:35:59.480Z,97722.28
2023-01-13T15:41:05.750Z,97608.38
2023-01-13T15:46:36.262Z,97556.72
2023-01-13T15:51:41.058Z,97699.22
2023-01-13T15:56:44.600Z,97691.00
2023-01-13T16:01:48.066Z,97706.53
2023-01-13T16:06:51.595Z,97730.53
2023-01-13T16:11:55.602Z,97491.53
2023-01-13T16:16:59.155Z,97723.38
2023-01-13T16:22:02.625Z,97628.84
2023-01-13T16:27:14.311Z,97600.63
2023-01-13T16:32:18.410Z,97730.41
2023-01-13T16:37:25.635Z,97749.81
2023-01-13T16:42:29.893Z,97568.09
2023-01-13T16:47:33.173Z,97739.47
2023-01-13T16:52:36.599Z,97712.31
2023-01-13T16:57:39.916Z,97556.34
2023-01-13T17:02:43.558Z,97740.50
2023-01-13T17:07:48.483Z,97750.63
2023-01-13T17:12:52.283Z,97769.13
2023-01-13T17:17:57.377Z,97754.19
2023-01-13T17:23:00.727Z,97739.50
2023-01-13T17:28:04.260Z,97756.84
2023-01-13T17:33:07.972Z,97731.31
2023-01-13T17:38:11.262Z,97710.22
2023-01-13T17:43:14.563Z,97746.41
2023-01-13T17:48:27.939Z,97572.72
2023-01-13T17:53:31.196Z,97680.91
2023-01-13T17:58:34.504Z,97488.19
2023-01-13T18:03:39.401Z,97721.34
2023-01-13T18:08:42.747Z,97702.63
2023-01-13T18:13:47.295Z,97785.00
2023-01-13T18:18:52.309Z,97784.81
2023-01-13T18:24:14.549Z,97792.03
2023-01-13T18:29:17.798Z,97799.09
2023-01-13T18:34:22.046Z,97747.91
2023-01-13T18:39:25.469Z,97574.13
2023-01-13T18:44:28.829Z,97811.59
2023-01-13T18:49:32.142Z,97809.66
2023-01-13T18:54:36.372Z,97813.28
2023-01-13T18:59:39.759Z,97821.66
2023-01-13T19:04:44.184Z,97818.69
2023-01-13T19:09:50.613Z,97782.75
2023-01-13T19:14:58.761Z,97796.53
2023-01-13T19:20:05.984Z,97825.69
2023-01-13T19:25:09.549Z,97705.91
2023-01-13T19:30:13.702Z,97648.34
2023-01-13T19:35:18.797Z,97738.28
2023-01-13T19:40:22.195Z,97731.53
2023-01-13T19:45:37.083Z,97822.72
2023-01-13T19:50:41.376Z,97819.97
2023-01-13T19:55:50.066Z,97820.75
2023-01-13T20:00:56.902Z,97849.84
2023-01-13T20:06:08.463Z,97627.75
2023-01-13T20:11:24.678Z,97807.13
2023-01-13T20:16:29.357Z,97871.88
2023-01-13T20:21:32.719Z,97819.34
2023-01-13T20:26:38.149Z,97604.78
2023-01-13T20:31:41.431Z,97869.75
2023-01-13T20:36:45.220Z,97754.22
2023-01-13T20:42:16.958Z,97704.34
2023-01-13T20:47:20.756Z,97887.53
2023-01-13T20:52:24.237Z,97844.97
2023-01-13T20:57:37.759Z,97801.63
2023-01-13T21:02:45.662Z,97802.84
2023-01-13T21:07:48.956Z,97873.44
2023-01-13T21:13:23.907Z,97838.78
2023-01-13T21:18:45.935Z,97787.53
2023-01-13T21:23:53.674Z,97832.16
2023-01-13T21:29:00.864Z,97776.97
2023-01-13T21:34:05.484Z,97803.66
2023-01-13T21:39:10.191Z,97893.91
2023-01-13T21:44:36.087Z,97653.00
2023-01-13T21:49:44.920Z,97850.84
2023-01-13T21:55:07.044Z,97758.03
2023-01-13T22:00:11.268Z,97914.22
2023-01-13T22:05:16.763Z,97834.84
2023-01-13T22:10:28.222Z,97950.28
2023-01-13T22:15:33.216Z,97849.47
2023-01-13T22:20:36.630Z,97875.06
2023-01-13T22:25:40.204Z,97695.44
2023-01-13T22:30:43.479Z,97677.06
2023-01-13T22:35:46.909Z,97788.06
2023-01-13T22:41:00.993Z,97905.06
2023-01-13T22:46:10.710Z,97963.84
2023-01-13T22:51:16.656Z,97890.59
2023-01-13T22:56:23.923Z,97958.47
2023-01-13T23:01:31.942Z,97962.63
2023-01-13T23:06:36.099Z,97962.38
2023-01-13T23:11:40.774Z,97979.88
2023-01-13T23:16:44.862Z,97834.53
2023-01-13T23:21:48.493Z,97897.53
2023-01-13T23:26:52.083Z,98004.94
2023-01-13T23:31:55.549Z,98017.63
2023-01-13T23:36:59.043Z,97926.84
2023-01-13T23:42:02.778Z,97908.31
2023-01-13T23:47:06.153Z,97794.47
2023-01-13T23:52:09.654Z,97860.56
2023-01-13T23:57:14.379Z,97967.03
